Atlantica — WDF3913 — position and weather

sailwx.info

Track history (hours):
 
Tides and Currents Weather Stations Pressure Air Temp Water Temp Dewpoint Dewpoint Depression Visibility Wind Speed Wind Dir Waves Ship Positions

Atlantica

Owner: Spirit Cruises LLC, New York, NY. More information available from US FCC via Universal Licensing System and Coast Guard Vessel Documentation Center.

Last reported at 2018-Jul-15 02:20 UTC. Time now 2018-Jul-17 16:53 UTC.
Position N 40°45' W 074°01'.

Length 45 m; draft 3.5 m.

Type: Passenger vessel. MMSI: 367445550.

Date/timePositionNaut miles runAvg speedWind from/ knotsBaromVisibWave heightAir tempDewpointWater temp
2018-Jul-15 02:20N 40°45' W 074°01'0 1.0
2018-Jul-15 02:00N 40°45' W 074°01'4 7.2
2018-Jul-15 01:30N 40°41' W 074°02'1 2.3
2018-Jul-15 01:00N 40°42' W 074°01'3 5.4
2018-Jul-15 00:30N 40°43' W 073°58'0 0.7
2018-Jul-15 00:00N 40°43' W 073°58'2 4.7
2018-Jul-14 23:30N 40°43' W 074°01'4 7.7
2018-Jul-14 23:00N 40°47' W 073°60'2 0.4
2018-Jul-14 16:49N 40°45' W 074°01'1 2.1
2018-Jul-14 16:30N 40°44' W 074°01'3 6.6
2018-Jul-14 16:00N 40°41' W 074°02'1 2.5
2018-Jul-14 15:30N 40°42' W 074°01'3 6.3
2018-Jul-14 15:00N 40°45' W 074°01'0 0.0
2018-Jul-14 03:25N 40°45' W 074°01'1 3.0
2018-Jul-14 03:01N 40°44' W 074°01'3 5.5
2018-Jul-14 02:31N 40°41' W 074°02'2 4.5
2018-Jul-14 02:01N 40°42' W 073°60'2 4.4
2018-Jul-14 01:31N 40°44' W 073°58'1 2.7
2018-Jul-14 01:01N 40°43' W 073°58'3 5.2
2018-Jul-14 00:31N 40°44' W 074°01'1 1.5
2018-Jul-13 23:43N 40°45' W 074°01'0 0.0
2018-Jul-12 20:38N 40°45' W 074°01'1 4.6
2018-Jul-12 20:30N 40°45' W 074°01'0 0.4
2018-Jul-12 19:59N 40°46' W 074°01'3 6.4
2018-Jul-12 19:30N 40°42' W 074°01'1 2.3
2018-Jul-12 19:00N 40°41' W 074°02'1 1.6
2018-Jul-12 18:30N 40°41' W 074°02'5 9.3
2018-Jul-12 18:00N 40°45' W 074°01'0 0.5
2018-Jul-12 17:30N 40°46' W 074°01'0 0.8
2018-Jul-12 17:00N 40°45' W 074°01'0 0.8
2018-Jul-12 16:30N 40°45' W 074°01'0 0.0
2018-Jul-12 16:00N 40°45' W 074°01'0 0.0
2018-Jul-12 15:30N 40°45' W 074°01'0 0.0
2018-Jul-12 15:00N 40°45' W 074°01'  
2018-Jul-09 18:48N 40°45' W 074°01'1 3.4
2018-Jul-09 18:30N 40°44' W 074°01'3 5.9
2018-Jul-09 18:00N 40°41' W 074°03'3 6.3
2018-Jul-09 17:30N 40°43' W 073°59'2 3.9
2018-Jul-09 17:00N 40°43' W 074°01'2 0.1
2018-Jul-08 02:24N 40°45' W 074°01'0 0.4
2018-Jul-08 01:47N 40°45' W 074°01'2 6.5
2018-Jul-08 01:30N 40°43' W 074°01'2 4.7
2018-Jul-08 01:00N 40°41' W 074°03'3 5.9
2018-Jul-08 00:30N 40°43' W 073°59'0 0.7
2018-Jul-08 00:00N 40°42' W 073°59'2 4.3
2018-Jul-07 23:30N 40°44' W 074°01'  
2018-Jul-05 02:55N 40°45' W 074°01'2 3.7
2018-Jul-05 02:30N 40°43' W 074°01'  
Track history (hours):
 
Tides and Currents Weather Stations Pressure Air Temp Water Temp Dewpoint Dewpoint Depression Visibility Wind Speed Wind Dir Waves Ship Positions

Atlantica

Owner: Spirit Cruises LLC, New York, NY. More information available from US FCC via Universal Licensing System and Coast Guard Vessel Documentation Center.

Last reported at 2018-Jul-15 02:20 UTC. Time now 2018-Jul-17 16:53 UTC.
Position N 40°45' W 074°01'.

Length 45 m; draft 3.5 m.

Type: Passenger vessel. MMSI: 367445550.

Date/timePositionNaut miles runAvg speedWind from/ knotsBaromVisibWave heightAir tempDewpointWater temp
2018-Jul-15 02:20N 40°45' W 074°01'0 1.0
2018-Jul-15 02:00N 40°45' W 074°01'4 7.2
2018-Jul-15 01:30N 40°41' W 074°02'1 2.3
2018-Jul-15 01:00N 40°42' W 074°01'3 5.4
2018-Jul-15 00:30N 40°43' W 073°58'0 0.7
2018-Jul-15 00:00N 40°43' W 073°58'2 4.7
2018-Jul-14 23:30N 40°43' W 074°01'4 7.7
2018-Jul-14 23:00N 40°47' W 073°60'2 0.4
2018-Jul-14 16:49N 40°45' W 074°01'1 2.1
2018-Jul-14 16:30N 40°44' W 074°01'3 6.6
2018-Jul-14 16:00N 40°41' W 074°02'1 2.5
2018-Jul-14 15:30N 40°42' W 074°01'3 6.3
2018-Jul-14 15:00N 40°45' W 074°01'0 0.0
2018-Jul-14 03:25N 40°45' W 074°01'1 3.0
2018-Jul-14 03:01N 40°44' W 074°01'3 5.5
2018-Jul-14 02:31N 40°41' W 074°02'2 4.5
2018-Jul-14 02:01N 40°42' W 073°60'2 4.4
2018-Jul-14 01:31N 40°44' W 073°58'1 2.7
2018-Jul-14 01:01N 40°43' W 073°58'3 5.2
2018-Jul-14 00:31N 40°44' W 074°01'1 1.5
2018-Jul-13 23:43N 40°45' W 074°01'0 0.0
2018-Jul-12 20:38N 40°45' W 074°01'1 4.6
2018-Jul-12 20:30N 40°45' W 074°01'0 0.4
2018-Jul-12 19:59N 40°46' W 074°01'3 6.4
2018-Jul-12 19:30N 40°42' W 074°01'1 2.3
2018-Jul-12 19:00N 40°41' W 074°02'1 1.6
2018-Jul-12 18:30N 40°41' W 074°02'5 9.3
2018-Jul-12 18:00N 40°45' W 074°01'0 0.5
2018-Jul-12 17:30N 40°46' W 074°01'0 0.8
2018-Jul-12 17:00N 40°45' W 074°01'0 0.8
2018-Jul-12 16:30N 40°45' W 074°01'0 0.0
2018-Jul-12 16:00N 40°45' W 074°01'0 0.0
2018-Jul-12 15:30N 40°45' W 074°01'0 0.0
2018-Jul-12 15:00N 40°45' W 074°01'  
2018-Jul-09 18:48N 40°45' W 074°01'1 3.4
2018-Jul-09 18:30N 40°44' W 074°01'3 5.9
2018-Jul-09 18:00N 40°41' W 074°03'3 6.3
2018-Jul-09 17:30N 40°43' W 073°59'2 3.9
2018-Jul-09 17:00N 40°43' W 074°01'2 0.1
2018-Jul-08 02:24N 40°45' W 074°01'0 0.4
2018-Jul-08 01:47N 40°45' W 074°01'2 6.5
2018-Jul-08 01:30N 40°43' W 074°01'2 4.7
2018-Jul-08 01:00N 40°41' W 074°03'3 5.9
2018-Jul-08 00:30N 40°43' W 073°59'0 0.7
2018-Jul-08 00:00N 40°42' W 073°59'2 4.3
2018-Jul-07 23:30N 40°44' W 074°01'  
2018-Jul-05 02:55N 40°45' W 074°01'2 3.7
2018-Jul-05 02:30N 40°43' W 074°01'  

Dump ship's entire track history